Time;durP1;ratioP1;P1;durP2;ratioP2;P2;SDS_P1;SDS_P2;PMS_P1;PMS_P2;Temp;Humidity;BMP_temperature;BMP_pressure;BME280_temperature;BME280_humidity;BME280_pressure;Samples;Min_cycle;Max_cycle;Signal;HPM_P1;HPM_P2
2023/03/16 00:00:21;;;;;;;;;6.50;4.50;;;;;10.10;46.40;100999.53;4743977;29;46049;-62
2023/03/16 00:02:47;;;;;;;;;7.50;5.25;;;;;10.04;46.38;100992.94;4733000;29;45339;-61
2023/03/16 00:05:12;;;;;;;;;3.25;3.25;;;;;10.04;46.46;101003.91;4733969;29;45510;-61
2023/03/16 00:07:38;;;;;;;;;9.00;7.00;;;;;10.01;46.39;100998.81;4730985;29;45349;-62
2023/03/16 00:10:04;;;;;;;;;10.25;8.50;;;;;10.00;46.55;100982.56;4730570;30;46565;-62
2023/03/16 00:12:33;;;;;;;;;9.60;7.40;;;;;10.01;46.31;100978.78;4730083;30;45454;-61
2023/03/16 00:14:59;;;;;;;;;7.40;7.40;;;;;9.80;46.60;100964.09;4731622;30;45713;-62
2023/03/16 00:17:25;;;;;;;;;10.50;7.25;;;;;9.92;47.84;100971.78;4733561;29;45460;-61
2023/03/16 00:19:54;;;;;;;;;8.00;7.40;;;;;9.99;47.15;100986.38;4731298;29;45894;-62
2023/03/16 00:22:24;;;;;;;;;11.40;5.20;;;;;9.98;46.95;100990.16;4731265;29;45374;-61
2023/03/16 00:24:51;;;;;;;;;7.00;7.00;;;;;9.80;47.86;100955.03;4731710;29;45829;-62
2023/03/16 00:27:17;;;;;;;;;7.40;6.80;;;;;9.91;47.06;100970.91;4730118;30;45588;-61
2023/03/16 00:29:46;;;;;;;;;6.75;6.00;;;;;9.85;46.87;100972.56;4727927;29;46199;-62
2023/03/16 00:32:16;;;;;;;;;3.40;3.40;;;;;9.83;47.56;100973.81;4732187;29;45400;-60
2023/03/16 00:34:43;;;;;;;;;6.00;6.00;;;;;9.82;47.61;100967.47;4712269;29;45420;-62
2023/03/16 00:37:09;;;;;;;;;10.20;7.40;;;;;9.75;48.11;100959.22;4729466;29;45807;-62
2023/03/16 00:39:35;;;;;;;;;6.50;6.50;;;;;9.73;47.27;100982.41;4731329;30;45376;-60
2023/03/16 00:42:01;;;;;;;;;4.80;4.80;;;;;9.65;47.35;100955.16;4732355;29;45407;-59
2023/03/16 00:44:26;;;;;;;;;10.00;7.80;;;;;9.42;47.90;100909.69;4716782;30;45739;-60
2023/03/16 00:46:52;;;;;;;;;6.00;6.00;;;;;9.75;48.28;100963.84;4733363;30;45256;-61
2023/03/16 00:49:17;;;;;;;;;6.50;6.50;;;;;9.77;46.96;100961.78;4731163;30;47226;-61
2023/03/16 00:51:44;;;;;;;;;10.25;7.50;;;;;9.74;47.99;100948.47;4731976;30;45942;-60
2023/03/16 00:54:10;;;;;;;;;8.00;3.60;;;;;9.70;48.09;100937.06;4732234;30;45458;-61
2023/03/16 00:56:36;;;;;;;;;7.50;6.00;;;;;9.71;48.28;100932.44;4733714;29;45371;-61
2023/03/16 00:59:01;;;;;;;;;9.00;7.00;;;;;9.68;47.63;100936.41;4733145;29;45865;-61
2023/03/16 01:01:27;;;;;;;;;6.00;4.00;;;;;9.66;48.25;100943.97;4732898;30;45513;-61
2023/03/16 01:03:53;;;;;;;;;9.75;6.75;;;;;9.69;48.26;100959.19;4733228;29;45493;-61
2023/03/16 01:06:19;;;;;;;;;8.20;7.60;;;;;9.69;48.02;100949.06;4733412;29;45525;-61
2023/03/16 01:08:45;;;;;;;;;9.75;7.50;;;;;9.70;48.60;100947.16;4733019;29;45305;-60
2023/03/16 01:11:12;;;;;;;;;12.25;7.25;;;;;9.65;48.54;100938.72;4733424;29;45433;-61
2023/03/16 01:13:38;;;;;;;;;7.60;6.20;;;;;9.70;47.97;100964.47;4716623;30;45508;-61
2023/03/16 01:16:04;;;;;;;;;8.00;8.00;;;;;9.70;48.09;100971.81;4732136;30;45348;-60
2023/03/16 01:18:33;;;;;;;;;7.80;7.80;;;;;9.70;48.51;100969.09;4731502;30;47082;-61
2023/03/16 01:21:00;;;;;;;;;9.60;7.40;;;;;9.62;48.50;100943.53;4733191;29;45381;-62
2023/03/16 01:23:28;;;;;;;;;8.00;7.00;;;;;9.62;48.63;100918.03;4730731;30;45322;-61
2023/03/16 01:25:54;;;;;;;;;9.00;6.80;;;;;9.47;48.58;100879.78;4733252;29;45398;-60
2023/03/16 01:28:23;;;;;;;;;11.00;7.75;;;;;9.47;49.47;100908.03;4731594;30;46054;-63
2023/03/16 01:30:53;;;;;;;;;7.20;7.20;;;;;9.46;49.31;100919.19;4732927;29;45701;-61
2023/03/16 01:33:20;;;;;;;;;11.80;9.20;;;;;9.46;48.79;100905.50;4733197;30;45261;-60
2023/03/16 01:36:03;;;;;;;;;9.00;8.40;;;;;9.45;49.26;100903.81;4732918;29;45339;-61
2023/03/16 01:38:29;;;;;;;;;7.40;7.00;;;;;9.45;49.50;100904.63;4723572;29;45642;-61
2023/03/16 01:40:54;;;;;;;;;10.75;7.50;;;;;9.48;50.06;100895.19;4730625;29;45516;-61
2023/03/16 01:43:21;;;;;;;;;5.00;5.00;;;;;9.38;49.88;100875.53;4731835;30;45423;-60
2023/03/16 01:45:59;;;;;;;;;8.80;6.60;;;;;9.54;49.64;100896.28;4728854;30;45359;-60
2023/03/16 01:48:24;;;;;;;;;7.60;7.40;;;;;9.47;49.53;100882.53;4732834;30;46345;-60
2023/03/16 01:50:51;;;;;;;;;8.00;8.00;;;;;9.40;49.78;100878.91;4731457;30;45418;-59
2023/03/16 01:53:17;;;;;;;;;7.40;7.40;;;;;9.14;49.36;100842.06;4717265;30;45384;-61
2023/03/16 01:55:42;;;;;;;;;10.80;7.00;;;;;9.38;49.54;100900.19;4732721;29;45364;-60
2023/03/16 01:58:08;;;;;;;;;7.50;6.50;;;;;9.38;49.59;100892.78;4731754;30;45405;-60
2023/03/16 02:00:33;;;;;;;;;10.25;8.75;;;;;9.39;50.26;100888.19;4731561;30;45397;-61
2023/03/16 02:03:04;;;;;;;;;10.00;7.75;;;;;9.38;49.90;100881.84;4732582;30;45413;-61
2023/03/16 02:05:29;;;;;;;;;8.60;8.60;;;;;9.34;50.03;100881.38;4716950;30;45719;-61
2023/03/16 02:07:57;;;;;;;;;11.25;8.50;;;;;9.33;49.59;100859.66;4732511;29;45490;-60
2023/03/16 02:10:23;;;;;;;;;7.40;7.40;;;;;9.29;50.36;100861.97;4732950;30;45421;-60
2023/03/16 02:12:49;;;;;;;;;8.50;8.50;;;;;8.84;49.84;100798.47;4732011;30;45442;-60
2023/03/16 02:15:14;;;;;;;;;7.75;7.75;;;;;9.16;49.80;100870.09;4716521;30;45665;-61
2023/03/16 02:17:40;;;;;;;;;9.00;6.25;;;;;9.11;50.36;100864.38;4731137;30;45632;-60
2023/03/16 02:20:24;;;;;;;;;10.60;8.20;;;;;8.97;49.05;100841.53;4731187;30;45445;-61
2023/03/16 02:22:53;;;;;;;;;7.20;7.00;;;;;9.14;49.52;100864.84;4732789;29;45317;-62
2023/03/16 02:25:23;;;;;;;;;7.60;7.60;;;;;9.16;49.25;100868.22;4716930;30;45278;-61
2023/03/16 02:28:01;;;;;;;;;10.60;6.80;;;;;9.12;49.18;100866.91;4730731;30;47562;-60
2023/03/16 02:30:26;;;;;;;;;10.40;7.80;;;;;8.86;49.40;100818.28;4730872;30;45489;-61
2023/03/16 02:32:52;;;;;;;;;9.25;6.25;;;;;9.04;50.07;100859.72;4731147;30;45498;-61
2023/03/16 02:35:18;;;;;;;;;6.00;6.00;;;;;9.04;49.58;100861.59;4732959;30;45418;-59
2023/03/16 02:37:43;;;;;;;;;7.50;7.50;;;;;9.02;49.67;100856.31;4733921;29;46667;-59
2023/03/16 02:40:17;;;;;;;;;6.25;6.25;;;;;9.01;49.67;100859.25;4734657;30;45286;-60
2023/03/16 02:42:42;;;;;;;;;9.00;8.00;;;;;9.02;49.53;100850.00;4709788;29;45411;-60
2023/03/16 02:45:08;;;;;;;;;6.00;6.00;;;;;8.98;48.82;100848.69;4734337;29;45505;-60
2023/03/16 02:47:41;;;;;;;;;10.00;7.60;;;;;8.96;49.73;100840.66;4750077;29;46441;-61
2023/03/16 02:50:08;;;;;;;;;7.80;7.80;;;;;8.73;49.44;100800.72;4722208;29;46032;-60
2023/03/16 02:52:34;;;;;;;;;7.60;6.40;;;;;8.91;49.25;100832.22;4751344;29;45474;-60
2023/03/16 02:54:59;;;;;;;;;7.20;6.60;;;;;8.84;49.43;100823.94;4751940;29;45396;-61
2023/03/16 02:57:25;;;;;;;;;6.50;5.50;;;;;8.77;50.08;100821.19;4751301;29;47360;-60
2023/03/16 02:59:50;;;;;;;;;4.25;4.25;;;;;8.80;49.63;100825.38;4752724;29;45421;-60
2023/03/16 03:02:16;;;;;;;;;4.50;4.00;;;;;8.76;49.63;100815.91;4738434;29;45455;-61
2023/03/16 03:04:44;;;;;;;;;6.50;5.50;;;;;8.54;49.67;100777.63;4735034;30;45605;-61
2023/03/16 03:07:13;;;;;;;;;6.00;6.00;;;;;8.60;49.32;100793.22;4732994;30;48534;-61
2023/03/16 03:09:41;;;;;;;;;8.40;8.40;;;;;8.56;49.60;100791.09;4718554;30;45395;-59
2023/03/16 03:12:09;;;;;;;;;6.80;6.40;;;;;8.67;49.38;100812.44;4734719;29;45767;-60
2023/03/16 03:14:38;;;;;;;;;7.40;6.20;;;;;8.68;48.96;100797.72;4734329;29;45700;-61
2023/03/16 03:17:07;;;;;;;;;10.40;6.40;;;;;8.65;49.29;100806.34;4734296;29;46548;-61
2023/03/16 03:19:33;;;;;;;;;7.00;5.60;;;;;8.62;48.75;100799.38;4732704;30;45520;-61
2023/03/16 03:22:02;;;;;;;;;7.80;6.60;;;;;8.60;48.93;100798.69;4734829;30;45315;-61
2023/03/16 03:24:28;;;;;;;;;7.00;7.00;;;;;8.54;49.78;100791.31;4734226;29;45297;-63
2023/03/16 03:26:54;;;;;;;;;7.75;7.00;;;;;8.60;49.38;100801.44;4733001;30;46077;-61
2023/03/16 03:29:19;;;;;;;;;4.25;4.25;;;;;8.35;49.80;100769.00;4734327;29;45408;-61
2023/03/16 03:31:45;;;;;;;;;5.75;5.75;;;;;8.61;49.99;100819.56;4733195;30;45433;-60
2023/03/16 03:34:10;;;;;;;;;6.75;6.25;;;;;8.61;49.21;100810.50;4734521;29;45368;-60
2023/03/16 03:36:36;;;;;;;;;4.50;4.50;;;;;8.41;48.95;100767.38;4732487;30;45581;-59
2023/03/16 03:39:03;;;;;;;;;6.50;2.00;;;;;8.63;49.87;100805.66;4734539;29;45757;-61
2023/03/16 03:41:30;;;;;;;;;6.80;6.80;;;;;8.64;49.48;100804.66;4734319;30;45491;-61
2023/03/16 03:43:55;;;;;;;;;4.60;3.80;;;;;8.53;49.84;100778.66;4734556;29;45403;-61
2023/03/16 03:46:21;;;;;;;;;11.00;6.75;;;;;8.57;48.87;100790.03;4732237;30;45547;-61
2023/03/16 03:48:46;;;;;;;;;5.00;5.00;;;;;8.62;49.63;100802.09;4732866;30;45486;-60
2023/03/16 03:51:12;;;;;;;;;6.75;6.75;;;;;8.46;49.73;100767.63;4733003;30;45384;-59
2023/03/16 03:53:38;;;;;;;;;6.00;6.00;;;;;8.53;49.00;100779.50;4734348;29;45597;-60
2023/03/16 03:56:07;;;;;;;;;5.50;4.25;;;;;8.54;49.80;100783.94;4734134;30;45333;-61
2023/03/16 03:58:44;;;;;;;;;5.60;5.60;;;;;8.59;49.29;100787.97;4718387;30;45447;-62
2023/03/16 04:01:10;;;;;;;;;6.60;4.80;;;;;8.57;49.05;100792.78;4718467;30;45679;-61
2023/03/16 04:03:35;;;;;;;;;4.25;4.25;;;;;8.57;49.76;100785.44;4734006;29;45409;-60
2023/03/16 04:06:01;;;;;;;;;4.75;4.25;;;;;8.57;49.54;100779.97;4733958;29;46188;-60
2023/03/16 04:08:30;;;;;;;;;5.50;5.50;;;;;8.54;49.17;100775.72;4732633;30;45670;-60
2023/03/16 04:10:56;;;;;;;;;7.60;7.20;;;;;8.51;49.56;100776.13;4732632;30;45253;-60
2023/03/16 04:13:21;;;;;;;;;6.00;5.00;;;;;8.25;49.29;100725.59;4734217;29;45519;-60
2023/03/16 04:15:47;;;;;;;;;3.75;3.50;;;;;8.27;48.98;100737.16;4717910;30;45327;-60
2023/03/16 04:18:12;;;;;;;;;5.25;3.50;;;;;8.41;49.41;100754.56;4734193;29;45347;-60
2023/03/16 04:20:38;;;;;;;;;3.00;3.00;;;;;8.46;50.02;100764.91;4734228;29;45302;-59
2023/03/16 04:23:04;;;;;;;;;2.75;2.75;;;;;8.45;49.39;100763.22;4733959;29;45567;-58
2023/03/16 04:25:29;;;;;;;;;3.50;3.25;;;;;8.44;49.13;100767.00;4733642;29;46676;-61
2023/03/16 04:27:55;;;;;;;;;6.00;5.00;;;;;8.40;49.10;100760.22;4733497;29;45774;-61
2023/03/16 04:30:22;;;;;;;;;4.25;4.25;;;;;8.39;49.54;100745.69;4713665;29;45582;-61
2023/03/16 04:32:47;;;;;;;;;3.00;3.00;;;;;8.40;49.27;100744.63;4733575;29;45634;-61
2023/03/16 04:35:14;;;;;;;;;7.75;6.00;;;;;8.08;49.17;100700.41;4733295;29;45596;-61
2023/03/16 04:37:40;;;;;;;;;4.20;4.20;;;;;8.43;49.01;100743.41;4732688;30;45527;-61
2023/03/16 04:40:15;;;;;;;;;5.25;3.50;;;;;8.42;48.75;100747.19;4733699;29;45537;-61
2023/03/16 04:42:40;;;;;;;;;6.80;5.20;;;;;8.31;49.63;100715.75;4732592;30;45356;-59
2023/03/16 04:45:07;;;;;;;;;7.25;6.50;;;;;8.24;48.91;100703.91;4733464;29;45457;-61
2023/03/16 04:47:33;;;;;;;;;5.20;5.20;;;;;8.45;48.91;100732.25;4731969;30;45418;-61
2023/03/16 04:50:00;;;;;;;;;4.25;4.25;;;;;8.43;49.18;100729.72;4732261;30;45250;-62
2023/03/16 04:52:25;;;;;;;;;2.40;2.40;;;;;8.39;48.85;100733.91;4732413;30;45408;-60
2023/03/16 04:54:51;;;;;;;;;3.75;2.00;;;;;8.37;49.52;100725.91;4732186;30;46945;-60
2023/03/16 04:57:18;;;;;;;;;3.50;3.00;;;;;8.35;48.84;100733.47;4731788;30;45444;-60
2023/03/16 04:59:43;;;;;;;;;5.00;4.80;;;;;8.34;48.82;100730.91;4732059;30;45368;-59
2023/03/16 05:02:09;;;;;;;;;7.00;6.00;;;;;8.19;49.32;100712.72;4733218;29;45405;-59
2023/03/16 05:04:34;;;;;;;;;4.75;3.00;;;;;8.31;49.21;100729.41;4733128;29;45348;-60
2023/03/16 05:07:00;;;;;;;;;5.25;3.00;;;;;8.32;49.77;100725.63;4733384;29;45318;-60
2023/03/16 05:09:25;;;;;;;;;6.00;6.00;;;;;8.28;49.55;100727.91;4733370;29;45676;-61
2023/03/16 05:11:51;;;;;;;;;5.75;3.00;;;;;8.27;49.33;100725.38;4717435;30;45536;-60
2023/03/16 05:14:16;;;;;;;;;5.75;3.00;;;;;8.21;49.39;100723.47;4732696;29;45438;-59
2023/03/16 05:16:42;;;;;;;;;5.50;4.00;;;;;8.21;49.80;100707.88;4732928;30;45369;-60
2023/03/16 05:19:07;;;;;;;;;6.00;4.50;;;;;8.18;49.07;100713.75;4731661;30;45458;-61
2023/03/16 05:21:36;;;;;;;;;5.00;5.00;;;;;8.19;49.42;100709.97;4733149;29;45300;-60
2023/03/16 05:24:02;;;;;;;;;7.60;4.60;;;;;8.17;49.24;100714.78;4731686;30;45633;-60
2023/03/16 05:26:28;;;;;;;;;2.40;2.40;;;;;8.10;49.11;100713.88;4732725;30;45444;-59
2023/03/16 05:28:54;;;;;;;;;6.00;3.00;;;;;8.09;49.70;100713.03;4731598;30;45450;-60
2023/03/16 05:31:19;;;;;;;;;3.00;3.00;;;;;8.05;49.49;100722.66;4733299;30;45378;-61
2023/03/16 05:33:44;;;;;;;;;5.00;5.00;;;;;8.07;49.81;100712.38;4732518;29;46058;-59
2023/03/16 05:36:10;;;;;;;;;5.25;4.75;;;;;8.02;49.42;100703.94;4732960;30;45344;-60
2023/03/16 05:38:35;;;;;;;;;5.25;3.00;;;;;8.13;49.44;100717.06;4731496;30;45372;-60
2023/03/16 05:41:03;;;;;;;;;2.25;2.25;;;;;8.13;49.47;100711.59;4717167;30;45346;-60
2023/03/16 05:43:29;;;;;;;;;3.00;3.00;;;;;7.82;49.41;100660.00;4732226;29;45617;-60
2023/03/16 05:45:55;;;;;;;;;6.00;3.00;;;;;8.14;49.44;100720.66;4731350;30;45398;-59
2023/03/16 05:48:20;;;;;;;;;2.25;2.25;;;;;7.89;49.72;100671.84;4731491;30;45728;-60
2023/03/16 05:50:46;;;;;;;;;5.25;5.00;;;;;8.14;49.73;100707.84;4732938;30;45491;-61
2023/03/16 05:53:12;;;;;;;;;3.50;3.50;;;;;8.14;49.15;100713.31;4732425;30;46402;-60
2023/03/16 05:55:37;;;;;;;;;2.75;2.75;;;;;8.13;49.66;100718.97;4732519;30;45415;-60
2023/03/16 05:58:03;;;;;;;;;5.00;2.25;;;;;8.08;49.88;100718.69;4731465;30;45434;-60
2023/03/16 06:00:28;;;;;;;;;6.00;2.25;;;;;7.82;49.57;100673.66;4732521;30;45412;-60
2023/03/16 06:02:54;;;;;;;;;3.75;2.50;;;;;8.09;49.67;100704.84;4730683;30;46199;-61
2023/03/16 06:05:20;;;;;;;;;5.75;3.00;;;;;8.12;48.88;100711.81;4731119;30;45472;-60
2023/03/16 06:07:47;;;;;;;;;5.00;5.00;;;;;8.04;49.51;100706.44;4731072;30;45398;-59
2023/03/16 06:10:12;;;;;;;;;3.40;3.40;;;;;7.89;49.15;100696.44;4733520;30;45402;-61
2023/03/16 06:12:38;;;;;;;;;5.75;5.75;;;;;7.92;49.56;100698.78;4719081;30;47546;-60
2023/03/16 06:15:06;;;;;;;;;6.00;3.00;;;;;8.02;48.96;100705.81;4735458;29;45259;-60
2023/03/16 06:17:32;;;;;;;;;3.80;2.80;;;;;8.07;49.14;100719.75;4735064;29;45331;-61
2023/03/16 06:19:57;;;;;;;;;2.25;2.25;;;;;7.83;49.17;100672.63;4736096;29;45393;-61
2023/03/16 06:22:23;;;;;;;;;2.00;2.00;;;;;7.92;48.78;100673.34;4735557;29;46250;-61
2023/03/16 06:24:50;;;;;;;;;4.40;2.40;;;;;8.16;49.01;100709.53;4720901;29;45490;-60
2023/03/16 06:27:15;;;;;;;;;4.20;4.20;;;;;8.13;48.34;100705.28;4753836;29;45348;-61
2023/03/16 06:29:40;;;;;;;;;2.00;1.75;;;;;8.19;48.47;100715.44;4753520;29;45560;-60
2023/03/16 06:32:06;;;;;;;;;2.50;2.50;;;;;8.20;48.55;100708.94;4733790;29;45617;-61
2023/03/16 06:34:33;;;;;;;;;1.75;1.75;;;;;8.26;48.74;100704.53;4755759;29;45342;-60
2023/03/16 06:36:58;;;;;;;;;2.40;2.00;;;;;8.26;48.10;100712.75;4752076;29;45415;-61
2023/03/16 06:39:24;;;;;;;;;3.00;1.25;;;;;8.25;47.58;100714.66;4753301;29;45397;-60
2023/03/16 06:41:49;;;;;;;;;2.00;2.00;;;;;8.26;48.05;100715.47;4752845;29;46231;-61
2023/03/16 06:44:15;;;;;;;;;5.50;2.00;;;;;8.26;48.21;100716.34;4753343;29;45378;-58
2023/03/16 06:46:40;;;;;;;;;2.25;1.25;;;;;8.30;47.24;100718.66;4753245;29;45381;-59
2023/03/16 06:49:06;;;;;;;;;2.25;2.00;;;;;8.09;47.22;100677.50;4752935;29;45645;-58
2023/03/16 06:51:31;;;;;;;;;2.50;2.00;;;;;8.38;47.45;100713.91;4751260;29;46964;-60
2023/03/16 06:53:57;;;;;;;;;7.25;2.50;;;;;8.33;47.75;100699.97;4751009;29;46341;-60
2023/03/16 06:56:22;;;;;;;;;1.50;1.50;;;;;8.43;47.32;100710.56;4753199;29;45379;-58
2023/03/16 06:58:48;;;;;;;;;2.00;1.50;;;;;8.42;47.13;100697.94;4736758;29;45458;-57
2023/03/16 07:01:13;;;;;;;;;1.75;1.75;;;;;8.44;47.44;100695.00;4751677;29;45338;-59
2023/03/16 07:03:39;;;;;;;;;5.75;2.50;;;;;8.39;47.06;100692.88;4751533;29;45507;-60
2023/03/16 07:06:05;;;;;;;;;3.50;2.50;;;;;8.41;46.95;100685.31;4751644;29;45770;-59
2023/03/16 07:08:30;;;;;;;;;2.00;2.00;;;;;8.40;47.05;100698.13;4752863;29;45410;-58
2023/03/16 07:10:56;;;;;;;;;1.00;1.00;;;;;8.24;46.86;100663.75;4751260;29;47227;-60
2023/03/16 07:13:21;;;;;;;;;2.25;2.25;;;;;8.26;46.59;100672.59;4752479;29;45403;-58
2023/03/16 07:15:51;;;;;;;;;1.00;1.00;;;;;8.34;46.40;100679.81;4751487;29;45478;-60
2023/03/16 07:18:17;;;;;;;;;2.00;2.00;;;;;8.43;47.75;100704.28;4751111;29;45579;-60
2023/03/16 07:20:43;;;;;;;;;1.40;1.40;;;;;8.44;46.64;100690.41;4751336;29;46087;-62
2023/03/16 07:23:08;;;;;;;;;1.50;1.50;;;;;8.45;47.01;100689.34;4752268;29;45297;-61
2023/03/16 07:25:33;;;;;;;;;4.00;2.50;;;;;8.43;47.64;100685.94;4750644;29;45595;-61
2023/03/16 07:27:59;;;;;;;;;6.25;2.00;;;;;8.41;46.24;100677.13;4767389;29;45399;-59
2023/03/16 07:30:25;;;;;;;;;4.00;2.00;;;;;8.44;46.24;100682.19;4769215;29;46033;-60
2023/03/16 07:32:50;;;;;;;;;3.00;2.00;;;;;8.46;47.22;100688.31;4770049;29;45804;-57
2023/03/16 07:35:16;;;;;;;;;5.80;2.40;;;;;8.44;46.33;100674.00;4770097;29;45270;-60
2023/03/16 07:37:42;;;;;;;;;6.00;3.00;;;;;8.17;45.62;100631.91;4753907;29;45575;-59
2023/03/16 07:40:08;;;;;;;;;1.75;1.50;;;;;8.39;46.84;100654.59;4769586;29;46149;-61
2023/03/16 07:42:34;;;;;;;;;3.40;3.00;;;;;8.46;46.34;100662.81;4768584;29;45464;-60
2023/03/16 07:45:00;;;;;;;;;5.40;2.20;;;;;8.26;46.89;100615.16;4770196;29;45407;-61
2023/03/16 07:47:26;;;;;;;;;3.00;2.00;;;;;8.61;46.65;100671.81;4768624;29;45914;-58
2023/03/16 07:49:51;;;;;;;;;3.00;1.00;;;;;8.67;46.16;100673.75;4769485;29;46093;-60
2023/03/16 07:52:17;;;;;;;;;1.00;1.00;;;;;8.72;46.36;100678.63;4769649;29;45483;-59
2023/03/16 07:54:43;;;;;;;;;6.75;5.50;;;;;8.77;46.05;100681.59;4770032;29;45399;-59
2023/03/16 07:57:08;;;;;;;;;9.00;3.00;;;;;8.72;46.94;100670.41;4768826;29;45437;-59
2023/03/16 07:59:33;;;;;;;;;2.50;1.00;;;;;8.82;46.58;100676.34;4769552;29;45558;-59
2023/03/16 08:01:59;;;;;;;;;6.25;2.00;;;;;8.84;45.53;100672.56;4763274;29;45915;-59
2023/03/16 08:04:28;;;;;;;;;1.00;1.00;;;;;8.87;46.49;100677.66;4748722;29;45382;-60
2023/03/16 08:06:58;;;;;;;;;4.00;2.60;;;;;8.89;45.30;100681.00;4732935;29;46337;-59
2023/03/16 08:09:25;;;;;;;;;1.80;1.80;;;;;8.89;45.43;100676.41;4749234;29;46537;-58
2023/03/16 08:11:50;;;;;;;;;2.60;2.60;;;;;8.65;46.10;100633.97;4748547;29;45448;-59
2023/03/16 08:14:16;;;;;;;;;1.50;1.50;;;;;8.94;45.56;100684.84;4748415;29;45424;-58
2023/03/16 08:16:41;;;;;;;;;3.00;1.50;;;;;8.97;46.86;100680.00;4748358;29;45291;-55
2023/03/16 08:19:07;;;;;;;;;2.25;2.25;;;;;8.92;46.10;100669.69;4749474;29;45953;-57
2023/03/16 08:21:33;;;;;;;;;2.25;1.75;;;;;9.00;46.56;100687.81;4749808;29;46041;-52
2023/03/16 08:23:58;;;;;;;;;3.00;3.00;;;;;8.98;46.61;100685.28;4748328;29;45457;-56
2023/03/16 08:26:25;;;;;;;;;3.25;2.25;;;;;8.94;46.83;100678.53;4749454;29;45359;-55
2023/03/16 08:28:51;;;;;;;;;1.60;1.60;;;;;9.06;46.53;100681.53;4749180;29;46541;-56
2023/03/16 08:31:16;;;;;;;;;2.00;2.00;;;;;9.12;46.36;100679.88;4735380;29;45475;-56
2023/03/16 08:33:43;;;;;;;;;2.00;2.00;;;;;9.14;45.82;100680.50;4747782;29;45481;-57
2023/03/16 08:36:10;;;;;;;;;2.40;2.20;;;;;9.08;46.22;100661.09;4749829;29;45538;-56
2023/03/16 08:38:37;;;;;;;;;3.80;2.80;;;;;9.12;46.66;100669.75;4748311;29;46551;-53
2023/03/16 08:41:03;;;;;;;;;2.00;2.00;;;;;9.25;46.36;100673.59;4747762;29;45427;-56
2023/03/16 08:43:29;;;;;;;;;3.00;3.00;;;;;9.26;46.32;100683.50;4747874;29;45356;-56
2023/03/16 08:45:54;;;;;;;;;2.25;2.00;;;;;9.27;46.09;100680.56;4749688;29;45514;-56
2023/03/16 08:48:21;;;;;;;;;2.50;2.50;;;;;9.33;46.27;100678.88;4749852;29;47625;-57
2023/03/16 08:50:46;;;;;;;;;2.80;2.00;;;;;9.24;45.76;100659.06;4751179;29;45409;-60
2023/03/16 08:53:12;;;;;;;;;1.00;1.00;;;;;9.33;45.72;100671.53;4748779;29;45469;-58
2023/03/16 08:55:40;;;;;;;;;3.00;3.00;;;;;9.29;45.85;100656.53;4751316;29;45439;-58
2023/03/16 08:58:06;;;;;;;;;6.00;3.00;;;;;9.08;46.63;100617.28;4726641;29;46111;-58
2023/03/16 09:00:32;;;;;;;;;1.00;1.00;;;;;9.43;46.22;100668.41;4751185;29;45470;-57
2023/03/16 09:02:59;;;;;;;;;2.50;2.50;;;;;9.47;46.35;100671.56;4751258;29;45425;-58
2023/03/16 09:05:25;;;;;;;;;4.00;3.00;;;;;9.53;46.81;100672.63;4751119;29;45563;-56
2023/03/16 09:07:52;;;;;;;;;5.50;4.00;;;;;9.61;45.85;100667.81;4750935;29;45351;-60
2023/03/16 09:10:18;;;;;;;;;1.80;1.20;;;;;9.72;46.09;100679.22;4751217;29;45351;-60
2023/03/16 09:12:44;;;;;;;;;2.00;2.00;;;;;9.86;45.92;100669.97;4751129;29;45468;-59
2023/03/16 09:15:11;;;;;;;;;4.50;2.75;;;;;9.94;45.55;100666.19;4751272;29;45283;-58
2023/03/16 09:17:37;;;;;;;;;2.60;2.60;;;;;10.09;45.52;100667.88;4749879;29;45417;-59
2023/03/16 09:20:04;;;;;;;;;7.60;6.60;;;;;10.02;45.17;100633.06;4751261;29;45436;-57
2023/03/16 09:22:29;;;;;;;;;4.00;4.00;;;;;10.30;45.04;100647.63;4749788;29;45355;-56
2023/03/16 09:24:55;;;;;;;;;8.50;6.00;;;;;10.51;45.04;100648.47;4751552;29;45527;-56
2023/03/16 09:27:21;;;;;;;;;2.75;2.75;;;;;10.70;44.39;100653.06;4751443;29;45564;-59
2023/03/16 09:29:47;;;;;;;;;2.80;2.80;;;;;10.55;44.68;100614.03;4750446;29;45548;-60
2023/03/16 09:32:13;;;;;;;;;7.60;6.00;;;;;10.62;45.14;100600.31;4750044;29;45297;-60
2023/03/16 09:34:38;;;;;;;;;2.25;2.25;;;;;11.00;44.16;100635.22;4749857;29;45329;-59
2023/03/16 09:37:04;;;;;;;;;3.75;2.00;;;;;11.11;44.22;100641.94;4749476;29;45568;-59
2023/03/16 09:39:30;;;;;;;;;6.75;3.25;;;;;11.21;44.49;100646.97;4751000;29;45591;-59
2023/03/16 09:42:23;;;;;;;;;2.80;2.80;;;;;11.19;44.31;100636.19;4734759;29;45317;-59
2023/03/16 09:45:08;;;;;;;;;3.80;2.00;;;;;11.24;43.55;100647.38;4752370;29;45512;-61
2023/03/16 09:47:34;;;;;;;;;1.80;1.80;;;;;11.31;43.69;100632.75;4754106;29;45950;-59
2023/03/16 09:50:02;;;;;;;;;2.40;2.40;;;;;11.13;43.99;100590.38;4753663;29;45469;-61
2023/03/16 09:52:50;;;;;;;;;2.80;2.60;;;;;11.45;43.89;100630.75;4742278;29;45444;-61
2023/03/16 09:55:32;;;;;;;;;2.00;2.00;;;;;11.48;43.28;100633.91;4750925;29;45272;-59
2023/03/16 09:57:59;;;;;;;;;2.20;2.00;;;;;11.31;43.37;100586.06;4718296;29;45313;-59
2023/03/16 10:00:31;;;;;;;;;3.00;1.20;;;;;11.54;43.48;100623.97;4746761;29;45476;-59
2023/03/16 10:02:57;;;;;;;;;2.60;2.00;;;;;11.60;43.10;100622.22;4734580;29;45477;-60
2023/03/16 10:05:22;;;;;;;;;2.00;2.00;;;;;11.55;42.46;100606.41;4739395;29;45669;-62
2023/03/16 10:08:13;;;;;;;;;4.00;2.00;;;;;11.66;42.99;100627.69;4758371;29;47093;-61
2023/03/16 10:10:54;;;;;;;;;2.00;2.00;;;;;11.72;42.34;100623.19;4755346;29;45566;-61
2023/03/16 10:13:49;;;;;;;;;1.60;1.60;;;;;11.73;42.64;100619.38;4732753;29;45713;-62
2023/03/16 10:16:55;;;;;;;;;6.20;2.00;;;;;11.83;42.69;100621.63;4747951;29;45657;-61
2023/03/16 10:19:36;;;;;;;;;4.40;3.20;;;;;11.96;42.48;100617.94;4725416;29;47338;-61
2023/03/16 10:22:04;;;;;;;;;2.80;2.80;;;;;11.89;42.48;100589.63;4732816;29;45381;-61
2023/03/16 10:24:43;;;;;;;;;5.80;2.00;;;;;12.17;42.34;100621.41;4732996;29;45379;-61
2023/03/16 10:27:22;;;;;;;;;4.00;4.00;;;;;12.22;42.30;100617.97;4734243;29;45442;-61
2023/03/16 10:29:47;;;;;;;;;3.20;3.00;;;;;12.24;42.18;100600.16;4739846;29;45404;-61
2023/03/16 10:32:17;;;;;;;;;2.00;2.00;;;;;12.37;41.91;100598.34;4737491;29;45429;-61
2023/03/16 10:34:46;;;;;;;;;3.20;2.20;;;;;12.54;41.96;100598.59;4733897;29;45517;-61
2023/03/16 10:37:12;;;;;;;;;4.20;2.20;;;;;12.48;41.92;100583.81;4715811;29;47371;-61
2023/03/16 10:39:41;;;;;;;;;4.20;2.80;;;;;12.65;41.86;100591.47;4746156;29;46547;-61
2023/03/16 10:42:15;;;;;;;;;1.00;1.00;;;;;12.61;41.99;100564.38;4759284;29;45569;-60
2023/03/16 10:44:41;;;;;;;;;2.40;2.20;;;;;12.98;41.56;100598.50;4749093;29;45868;-60
2023/03/16 10:47:07;;;;;;;;;3.00;2.25;;;;;13.08;41.45;100593.25;4740887;29;45460;-60
2023/03/16 10:49:40;;;;;;;;;4.20;2.60;;;;;13.03;40.84;100571.09;4742195;29;45971;-60
2023/03/16 10:52:23;;;;;;;;;3.40;2.00;;;;;13.25;41.55;100587.94;4735588;29;45625;-61
2023/03/16 10:55:00;;;;;;;;;5.40;2.60;;;;;13.39;41.03;100588.59;4714628;29;45692;-61
2023/03/16 10:57:32;;;;;;;;;2.00;2.00;;;;;13.40;40.99;100582.00;4736357;29;45598;-62
2023/03/16 11:00:13;;;;;;;;;4.00;2.20;;;;;13.46;40.63;100583.03;4738844;29;45912;-61
2023/03/16 11:02:39;;;;;;;;;3.00;3.00;;;;;13.57;40.53;100569.50;4733998;29;45474;-62
2023/03/16 11:05:33;;;;;;;;;3.50;3.50;;;;;13.65;40.56;100558.97;4731129;29;45513;-61
2023/03/16 11:08:20;;;;;;;;;5.80;3.20;;;;;13.69;40.95;100565.69;4727875;29;45782;-61
2023/03/16 11:10:53;;;;;;;;;2.00;1.60;;;;;13.71;40.39;100562.69;4738118;29;46831;-61
2023/03/16 11:13:19;;;;;;;;;4.20;3.00;;;;;13.79;40.37;100555.97;4744793;29;45502;-62
2023/03/16 11:15:56;;;;;;;;;2.60;2.60;;;;;13.92;40.06;100560.41;4732823;29;45899;-62
2023/03/16 11:18:31;;;;;;;;;4.00;2.00;;;;;14.05;39.52;100559.34;4735453;29;45342;-60
2023/03/16 11:21:05;;;;;;;;;4.00;2.60;;;;;14.14;39.96;100549.63;4736674;29;46244;-62
2023/03/16 11:23:35;;;;;;;;;3.80;2.60;;;;;14.18;39.75;100545.31;4731794;29;45471;-62
2023/03/16 11:26:03;;;;;;;;;3.40;2.00;;;;;14.30;39.72;100536.19;4754408;29;45864;-62
2023/03/16 11:28:43;;;;;;;;;4.80;3.00;;;;;14.35;39.41;100517.81;4747671;29;45482;-61
2023/03/16 11:31:31;;;;;;;;;6.40;3.80;;;;;14.31;39.43;100482.66;4733492;29;47181;-61
2023/03/16 11:34:01;;;;;;;;;4.60;4.00;;;;;14.54;39.02;100512.13;4733452;29;45889;-61